Cleveland, TN (37311)

2:22 PM EDT on August 28, 2015 (GMT -0400)
Cleveland | | Change Station
CLOSE
Current Station
Personal Weather Station
Location: Cleveland, TN
Elevation: 896 ft
Nearby Weather Stations

Elev 896 ft 35.19 °N, 84.86 °W | Updated 6 minutes ago

Partly Cloudy
Partly Cloudy
81.5 °F
Feels Like 86 °F
N
0.0
Wind Variable Wind from ESE

Today
High -- | Low -- °F
--% Chance of Precip.
Yesterday
High -- | Low -- °F
Precip. -- in
7:08 AM 8:12 PM
Waxing Gibbous, 98% visible
Pressure 30.14 in
Visibility 10.0 miles
Clouds Few 4100 ft
Scattered Clouds 8000 ft
Heat Index 86 °F
Dew Point 72 °F
Humidity 72%
Rainfall 0.00 in
Snow Depth Not available.
UV 8 out of 12
Pollen 8.90 out of 12
Air Quality Not available.
Flu Activity Not available.
METAR KRZR 281815Z AUTO 14003KT 10SM FEW041 SCT080 29/17 A3014 RMK
Pressure 30.14 in
Visibility 10.0 miles
Clouds Few 4100 ft
Scattered Clouds 8000 ft
Heat Index 86 °F
Dew Point 72 °F
Humidity 72%
Rainfall 0.00 in
Snow Depth Not available.
UV 8 out of 12
Pollen 8.90 out of 12
Air Quality Not available.
Flu Activity Not available.
METAR KRZR 281815Z AUTO 14003KT 10SM FEW041 SCT080 29/17 A3014 RMK

10-Day Weather Forecast

×

Almanac

Astronomy

Aug. 28, 2015 Rise Set
Actual Time
Civil Twilight
Nautical Twilight
Astronomical Twilight
Moon
Length of Visible Light
Length of Day
Tomorrow will be .
, % of the Moon is Illuminated

Today's Extremes

State Highs State Lows

Community

WunderPhotos

Upload Photos

1,850,453 photos uploaded!

WunderBlogs® & News

Nearby

Air Quality

  Air Quality AQ Index Pollutant
Not available.

Snow Depth

Station Depth Elevation

Earthquake Activity

City Distance Mag. Time & Date
Minimum magnitude displayed is 2.5.

Coastal Water Temperatures

Place Temperature

Stations

Nearby Weather Stations

Station Location Temp. Windchill Dew Point Humidity Wind Precip. Elev Updated Type